Butler, GA

5:04 PM EST on December 08, 2019 (GMT -0500)
Butler

Weather History for K6A1 - October, 2019

Change the Weather History Date:

Friday, October 18, 2019

  Actual Average (WUND) Record (WUND)
Temperature  
Mean Temperature 56 °F -  
Max Temperature 67 °F - - (-1)
Min Temperature 46 °F - - (-1)
Degree Days  
Heating Degree Days 8    
Growing Degree Days 6 (Base 50)    
Moisture  
Dew Point 43 °F    
Average Humidity 59    
Maximum Humidity 81    
Minimum Humidity 42    
Precipitation  
Precipitation 0.00 in - - ()
Sea Level Pressure  
Sea Level Pressure 29.98 in    
Wind  
Wind Speed 5 mph ()    
Max Wind Speed 9 mph    
Max Gust Speed -    
Visibility 10.0 miles    
Events      
Averages and records for this station are not official NWS values.
T = Trace of Precipitation, MM = Missing Value Source: Averaged Metar Reports

Daily Weather History Graph

Daily Weather History Graph

Search for Another Location

Airport or City:

Astronomy

Oct. 18, 2019 Rise Set
Actual Time 7:42 AM EDT 7:00 PM EDT
Civil Twilight 7:18 AM EDT 7:25 PM EDT
Nautical Twilight 6:49 AM EDT 7:54 PM EDT
Astronomical Twilight 6:20 AM EDT 8:22 PM EDT
Moon 10:29 PM EDT (10/18) 12:03 PM EDT (10/18)
Length of Visible Light 12h 07m
Length of Day
11h 17m
Waning Gibbous, 79% of the Moon is Illuminated
Oct 18
Waning Gibbous
Oct 21
Last Quarter
Oct 27
New
Nov 4
First Quarter
Nov 12
Full

Hourly Weather History & Observations

Time (EDT) Temp. Dew Point Humidity Pressure Visibility Wind Dir Wind Speed Gust Speed Precip Events Conditions
12:15 AM 56.3 °F 40.8 °F 56% 29.97 in 10.0 mi NNW 3.5 mph - N/A   Unknown
12:35 AM 56.3 °F 40.1 °F 55% 29.98 in 10.0 mi NW 4.6 mph - N/A   Unknown
12:55 AM 55.6 °F 40.1 °F 56% 29.98 in 10.0 mi NNW 4.6 mph - N/A   Unknown
1:35 AM 55.8 °F 39.6 °F 55% 29.97 in 10.0 mi NNW 4.6 mph - N/A   Unknown
1:55 AM 54.9 °F 40.1 °F 58% 29.97 in 10.0 mi Calm Calm - N/A   Unknown
2:15 AM 54.1 °F 40.3 °F 59% 29.98 in 10.0 mi Calm Calm - N/A   Unknown
2:35 AM 54.5 °F 39.7 °F 57% 29.97 in 10.0 mi NNW 3.5 mph - N/A   Unknown
2:55 AM 53.8 °F 39.9 °F 59% 29.97 in 10.0 mi NNW 4.6 mph - N/A   Unknown
3:15 AM 54.1 °F 39.2 °F 57% 29.97 in 10.0 mi NNW 4.6 mph - N/A   Unknown
3:35 AM 54.0 °F 39.2 °F 57% 29.97 in 10.0 mi NNW 6.9 mph - N/A   Unknown
3:55 AM 53.1 °F 40.1 °F 61% 29.97 in 10.0 mi North 5.8 mph - N/A   Unknown
4:15 AM 52.7 °F 39.7 °F 61% 29.96 in 10.0 mi North 5.8 mph - N/A   Unknown
4:35 AM 52.3 °F 39.4 °F 61% 29.96 in 10.0 mi NNW 5.8 mph - N/A   Unknown
4:55 AM 52.2 °F 39.4 °F 62% 29.96 in 10.0 mi NNW 4.6 mph - N/A   Unknown
5:15 AM 51.4 °F 39.6 °F 64% 29.95 in 10.0 mi North 4.6 mph - N/A   Unknown
5:35 AM 50.9 °F 39.7 °F 66% 29.95 in 10.0 mi North 3.5 mph - N/A   Unknown
5:55 AM 49.6 °F 40.6 °F 71% 29.95 in 10.0 mi NNE 5.8 mph - N/A   Unknown
6:15 AM 49.5 °F 40.6 °F 72% 29.96 in 10.0 mi Calm Calm - N/A   Unknown
6:35 AM 49.6 °F 40.3 °F 70% 29.97 in 10.0 mi NNE 6.9 mph - N/A   Unknown
6:55 AM 48.2 °F 40.6 °F 75% 29.97 in 10.0 mi NNE 5.8 mph - N/A   Unknown
7:15 AM 47.8 °F 40.8 °F 77% 29.97 in 10.0 mi NNE 5.8 mph - N/A   Unknown
7:35 AM 47.3 °F 41.0 °F 79% 29.97 in 10.0 mi NNE 6.9 mph - N/A   Unknown
7:55 AM 46.9 °F 41.5 °F 81% 29.97 in 10.0 mi NNE 3.5 mph - N/A   Unknown
8:15 AM 47.3 °F 41.2 °F 79% 29.98 in 10.0 mi NE 3.5 mph - N/A   Unknown
8:35 AM 47.7 °F 41.9 °F 80% 29.99 in 10.0 mi NNE 5.8 mph - N/A   Unknown
8:55 AM 48.2 °F 41.5 °F 78% 30.01 in 10.0 mi NE 4.6 mph - N/A   Unknown
9:15 AM 48.7 °F 41.7 °F 77% 30.02 in 10.0 mi ENE 4.6 mph - N/A   Unknown
9:35 AM 49.6 °F 42.3 °F 76% 30.03 in 10.0 mi NE 6.9 mph - N/A   Unknown
9:55 AM 51.3 °F 42.6 °F 72% 30.03 in 10.0 mi NE 8.1 mph - N/A   Unknown
10:15 AM 52.3 °F 42.8 °F 70% 30.03 in 10.0 mi East 8.1 mph - N/A   Unknown
10:35 AM 53.4 °F 43.2 °F 68% 30.03 in 10.0 mi East 4.6 mph - N/A   Unknown
10:55 AM 55.2 °F 43.0 °F 63% 30.04 in 10.0 mi East 9.2 mph - N/A   Unknown
11:15 AM 56.3 °F 43.0 °F 61% 30.04 in 10.0 mi ESE 6.9 mph - N/A   Unknown
11:35 AM 57.4 °F 43.0 °F 59% 30.04 in 10.0 mi East 6.9 mph - N/A   Unknown
11:55 AM 58.5 °F 42.8 °F 56% 30.04 in 10.0 mi ENE 4.6 mph - N/A   Unknown
12:15 PM 60.3 °F 43.0 °F 53% 30.04 in 10.0 mi East 6.9 mph - N/A   Unknown
12:35 PM 60.8 °F 42.3 °F 50% 30.03 in 10.0 mi East 6.9 mph - N/A   Unknown
12:55 PM 62.1 °F 42.8 °F 49% 30.02 in 10.0 mi East 6.9 mph - N/A   Unknown
1:15 PM 63.1 °F 42.8 °F 47% 30.02 in 10.0 mi ENE 8.1 mph - N/A   Unknown
1:35 PM 63.3 °F 42.3 °F 46% 30.00 in 10.0 mi East 6.9 mph - N/A   Unknown
1:55 PM 64.9 °F 42.3 °F 44% 29.99 in 10.0 mi East 8.1 mph - N/A   Unknown
2:15 PM 64.8 °F 42.3 °F 44% 29.98 in 10.0 mi ENE 6.9 mph - N/A   Unknown
2:35 PM 65.7 °F 42.6 °F 43% 29.97 in 10.0 mi SE 8.1 mph - N/A   Unknown
3:15 PM 66.4 °F 42.8 °F 42% 29.97 in 10.0 mi East 8.1 mph - N/A   Unknown
3:35 PM 67.1 °F 43.2 °F 42% 29.97 in 10.0 mi ENE 8.1 mph - N/A   Unknown
3:55 PM 66.6 °F 43.0 °F 42% 29.97 in 10.0 mi East 6.9 mph - N/A   Unknown
4:15 PM 67.1 °F 43.3 °F 42% 29.97 in 10.0 mi ENE 5.8 mph - N/A   Unknown
4:35 PM 66.9 °F 43.7 °F 43% 29.97 in 10.0 mi East 3.5 mph - N/A   Unknown
4:55 PM 66.7 °F 43.7 °F 43% 29.97 in 10.0 mi East 5.8 mph - N/A   Unknown
5:15 PM 66.4 °F 44.2 °F 45% 29.97 in 10.0 mi East 6.9 mph - N/A   Unknown
5:35 PM 65.5 °F 45.3 °F 48% 29.96 in 10.0 mi ENE 5.8 mph - N/A   Unknown
5:55 PM 64.9 °F 45.5 °F 49% 29.96 in 10.0 mi East 4.6 mph - N/A   Unknown
6:15 PM 64.4 °F 46.0 °F 51% 29.96 in 10.0 mi East 4.6 mph - N/A   Unknown
6:55 PM 62.8 °F 46.6 °F 55% 29.95 in 10.0 mi ENE 4.6 mph - N/A   Unknown
7:15 PM 61.9 °F 46.8 °F 58% 29.94 in 10.0 mi ENE 4.6 mph - N/A   Unknown
7:35 PM 61.7 °F 46.8 °F 58% 29.95 in 10.0 mi ENE 3.5 mph - N/A   Unknown
7:55 PM 61.0 °F 47.3 °F 61% 29.94 in 10.0 mi ENE 4.6 mph - N/A   Unknown
8:15 PM 60.8 °F 47.5 °F 62% 29.94 in 10.0 mi ENE 3.5 mph - N/A   Unknown
8:35 PM 60.8 °F 47.3 °F 61% 29.94 in 10.0 mi ENE 3.5 mph - N/A   Unknown
9:15 PM 60.3 °F 47.3 °F 62% 29.94 in 10.0 mi East 4.6 mph - N/A   Unknown
9:35 PM 60.4 °F 47.3 °F 62% 29.94 in 10.0 mi ENE 5.8 mph - N/A   Unknown
9:55 PM 60.3 °F 47.1 °F 62% 29.94 in 10.0 mi ENE 4.6 mph - N/A   Unknown
10:15 PM 60.8 °F 46.9 °F 60% 29.94 in 10.0 mi East 5.8 mph - N/A   Unknown
10:35 PM 61.2 °F 46.8 °F 59% 29.95 in 10.0 mi East 5.8 mph - N/A   Unknown
10:55 PM 60.8 °F 47.1 °F 61% 29.95 in 10.0 mi East 5.8 mph - N/A   Unknown
11:15 PM 60.8 °F 47.3 °F 61% 29.95 in 10.0 mi East 6.9 mph - N/A   Unknown
11:35 PM 60.8 °F 47.7 °F 62% 29.95 in 10.0 mi East 5.8 mph - N/A   Unknown
11:55 PM 61.0 °F 48.2 °F 63% 29.96 in 10.0 mi East 3.5 mph - N/A   Unknown